sensor_id;sensor_type;location;lat;lon;timestamp;pressure;altitude;pressure_sealevel;temperature;humidity
72942;BME280;69665;55.822;37.330;2023-05-08T00:01:24;100984.63;;;2.00;41.91
72942;BME280;69665;55.822;37.330;2023-05-08T00:03:50;100986.34;;;1.99;41.49
72942;BME280;69665;55.822;37.330;2023-05-08T00:06:16;100976.69;;;1.92;41.97
72942;BME280;69665;55.822;37.330;2023-05-08T00:08:41;100983.66;;;1.95;42.46
72942;BME280;69665;55.822;37.330;2023-05-08T00:11:07;100996.63;;;1.93;41.83
72942;BME280;69665;55.822;37.330;2023-05-08T00:13:33;100990.44;;;1.88;42.54
72942;BME280;69665;55.822;37.330;2023-05-08T00:15:58;100989.56;;;1.88;42.02
72942;BME280;69665;55.822;37.330;2023-05-08T00:18:24;100993.03;;;1.87;42.08
72942;BME280;69665;55.822;37.330;2023-05-08T00:20:51;100992.13;;;1.86;41.73
72942;BME280;69665;55.822;37.330;2023-05-08T00:23:16;100996.47;;;1.86;42.15
72942;BME280;69665;55.822;37.330;2023-05-08T00:25:42;100957.84;;;1.59;42.73
72942;BME280;69665;55.822;37.330;2023-05-08T00:28:07;100992.00;;;1.77;42.13
72942;BME280;69665;55.822;37.330;2023-05-08T00:30:33;101002.47;;;1.82;42.29
72942;BME280;69665;55.822;37.330;2023-05-08T00:32:58;100997.22;;;1.79;42.09
72942;BME280;69665;55.822;37.330;2023-05-08T00:35:24;100999.78;;;1.77;42.06
72942;BME280;69665;55.822;37.330;2023-05-08T00:37:50;100979.63;;;1.65;43.04
72942;BME280;69665;55.822;37.330;2023-05-08T00:40:15;101000.63;;;1.76;42.75
72942;BME280;69665;55.822;37.330;2023-05-08T00:42:41;101004.97;;;1.77;43.11
72942;BME280;69665;55.822;37.330;2023-05-08T00:45:07;100990.03;;;1.67;42.83
72942;BME280;69665;55.822;37.330;2023-05-08T00:47:33;100982.22;;;1.65;43.03
72942;BME280;69665;55.822;37.330;2023-05-08T00:49:59;101009.25;;;1.75;42.83
72942;BME280;69665;55.822;37.330;2023-05-08T00:52:27;101005.81;;;1.76;42.66
72942;BME280;69665;55.822;37.330;2023-05-08T00:54:54;100995.28;;;1.68;43.35
72942;BME280;69665;55.822;37.330;2023-05-08T00:57:21;101011.84;;;1.75;43.34
72942;BME280;69665;55.822;37.330;2023-05-08T00:59:48;101011.81;;;1.74;43.31
72942;BME280;69665;55.822;37.330;2023-05-08T01:02:14;101000.28;;;1.59;43.82
72942;BME280;69665;55.822;37.330;2023-05-08T01:04:41;101002.81;;;1.55;43.91
72942;BME280;69665;55.822;37.330;2023-05-08T01:07:10;100981.00;;;1.47;43.34
72942;BME280;69665;55.822;37.330;2023-05-08T01:09:35;101000.22;;;1.58;43.51
72942;BME280;69665;55.822;37.330;2023-05-08T01:14:51;101025.44;;;1.63;44.22
72942;BME280;69665;55.822;37.330;2023-05-08T01:34:26;100994.81;;;1.46;43.96
72942;BME280;69665;55.822;37.330;2023-05-08T01:37:13;101023.91;;;1.72;43.24
72942;BME280;69665;55.822;37.330;2023-05-08T01:39:49;101016.97;;;1.72;43.59
72942;BME280;69665;55.822;37.330;2023-05-08T01:42:24;100999.47;;;1.62;43.36
72942;BME280;69665;55.822;37.330;2023-05-08T01:44:55;101016.97;;;1.72;43.31
72942;BME280;69665;55.822;37.330;2023-05-08T01:47:24;101008.31;;;1.72;43.20
72942;BME280;69665;55.822;37.330;2023-05-08T01:52:44;101040.81;;;1.96;43.43
72942;BME280;69665;55.822;37.330;2023-05-08T01:55:16;101040.06;;;2.02;43.34
72942;BME280;69665;55.822;37.330;2023-05-08T01:57:53;101044.53;;;2.09;42.92
72942;BME280;69665;55.822;37.330;2023-05-08T02:00:21;101043.81;;;2.18;42.81
72942;BME280;69665;55.822;37.330;2023-05-08T02:02:48;101044.81;;;2.24;42.93
72942;BME280;69665;55.822;37.330;2023-05-08T02:05:15;101044.06;;;2.30;43.14
72942;BME280;69665;55.822;37.330;2023-05-08T02:07:46;101052.00;;;2.39;42.93
72942;BME280;69665;55.822;37.330;2023-05-08T02:10:14;101025.94;;;2.36;42.54
72942;BME280;69665;55.822;37.330;2023-05-08T02:12:42;101023.53;;;2.45;43.18
72942;BME280;69665;55.822;37.330;2023-05-08T02:15:11;101034.16;;;2.59;43.52
72942;BME280;69665;55.822;37.330;2023-05-08T02:17:39;101057.00;;;2.78;42.64
72942;BME280;69665;55.822;37.330;2023-05-08T02:20:07;101024.00;;;2.74;42.15
72942;BME280;69665;55.822;37.330;2023-05-08T02:22:43;101051.28;;;2.99;42.36
72942;BME280;69665;55.822;37.330;2023-05-08T02:25:11;101050.59;;;3.14;42.86
72942;BME280;69665;55.822;37.330;2023-05-08T02:27:41;101062.16;;;3.31;42.24
72942;BME280;69665;55.822;37.330;2023-05-08T02:30:12;101049.38;;;3.49;41.84
72942;BME280;69665;55.822;37.330;2023-05-08T02:32:40;101049.88;;;3.87;41.71
72942;BME280;69665;55.822;37.330;2023-05-08T02:35:07;101045.97;;;4.27;41.11
72942;BME280;69665;55.822;37.330;2023-05-08T02:37:33;101043.75;;;4.71;40.71
72942;BME280;69665;55.822;37.330;2023-05-08T02:40:01;101017.19;;;5.29;40.54
72942;BME280;69665;55.822;37.330;2023-05-08T02:42:29;101024.59;;;6.74;39.71
72942;BME280;69665;55.822;37.330;2023-05-08T02:44:55;101036.25;;;8.41;38.04
72942;BME280;69665;55.822;37.330;2023-05-08T02:47:24;101034.72;;;9.94;36.07
72942;BME280;69665;55.822;37.330;2023-05-08T02:50:15;101032.84;;;11.62;34.07
72942;BME280;69665;55.822;37.330;2023-05-08T02:53:04;101031.38;;;13.03;32.10
72942;BME280;69665;55.822;37.330;2023-05-08T02:55:47;101031.63;;;14.20;29.95
72942;BME280;69665;55.822;37.330;2023-05-08T02:58:21;101036.81;;;15.32;28.88
72942;BME280;69665;55.822;37.330;2023-05-08T03:01:25;101035.84;;;16.51;27.30
72942;BME280;69665;55.822;37.330;2023-05-08T03:04:00;101034.47;;;17.27;26.76
72942;BME280;69665;55.822;37.330;2023-05-08T03:06:30;101043.25;;;18.09;25.80
72942;BME280;69665;55.822;37.330;2023-05-08T03:09:01;101044.84;;;18.86;24.79
72942;BME280;69665;55.822;37.330;2023-05-08T03:11:39;101049.91;;;19.61;24.15
72942;BME280;69665;55.822;37.330;2023-05-08T03:14:11;101032.09;;;20.26;23.23
72942;BME280;69665;55.822;37.330;2023-05-08T03:16:40;101048.63;;;20.96;22.77
72942;BME280;69665;55.822;37.330;2023-05-08T03:19:18;101051.50;;;21.67;21.90
72942;BME280;69665;55.822;37.330;2023-05-08T03:21:46;101043.38;;;22.25;21.61
72942;BME280;69665;55.822;37.330;2023-05-08T03:24:14;101048.00;;;22.91;20.79
72942;BME280;69665;55.822;37.330;2023-05-08T03:26:42;101038.88;;;23.46;20.44
72942;BME280;69665;55.822;37.330;2023-05-08T03:29:08;101056.44;;;24.15;20.29
72942;BME280;69665;55.822;37.330;2023-05-08T03:31:35;101056.16;;;24.80;19.55
72942;BME280;69665;55.822;37.330;2023-05-08T03:34:03;101052.38;;;25.42;19.16
72942;BME280;69665;55.822;37.330;2023-05-08T03:36:29;101045.44;;;24.91;19.75
72942;BME280;69665;55.822;37.330;2023-05-08T03:38:55;101062.13;;;24.96;20.13
72942;BME280;69665;55.822;37.330;2023-05-08T03:41:24;101051.75;;;25.03;19.58
72942;BME280;69665;55.822;37.330;2023-05-08T03:43:49;101055.66;;;25.80;19.25
72942;BME280;69665;55.822;37.330;2023-05-08T03:46:16;101063.72;;;26.69;18.79
72942;BME280;69665;55.822;37.330;2023-05-08T03:48:42;101052.25;;;27.20;18.42
72942;BME280;69665;55.822;37.330;2023-05-08T03:51:09;101067.16;;;27.56;18.47
72942;BME280;69665;55.822;37.330;2023-05-08T03:53:36;101067.63;;;27.82;18.44
72942;BME280;69665;55.822;37.330;2023-05-08T03:56:02;101053.69;;;28.17;17.76
72942;BME280;69665;55.822;37.330;2023-05-08T03:58:36;101067.06;;;28.40;17.97
72942;BME280;69665;55.822;37.330;2023-05-08T04:04:20;101067.81;;;28.61;16.83
72942;BME280;69665;55.822;37.330;2023-05-08T04:06:58;101053.41;;;29.76;15.92
72942;BME280;69665;55.822;37.330;2023-05-08T04:09:58;101070.13;;;30.83;15.19
72942;BME280;69665;55.822;37.330;2023-05-08T04:13:04;101066.28;;;31.90;14.31
72942;BME280;69665;55.822;37.330;2023-05-08T04:15:37;101051.56;;;32.51;15.03
72942;BME280;69665;55.822;37.330;2023-05-08T04:18:09;101069.63;;;33.02;14.93
72942;BME280;69665;55.822;37.330;2023-05-08T04:20:40;101053.44;;;33.25;14.78
72942;BME280;69665;55.822;37.330;2023-05-08T04:23:13;101060.06;;;32.90;14.61
72942;BME280;69665;55.822;37.330;2023-05-08T04:25:41;101066.28;;;33.41;15.77
72942;BME280;69665;55.822;37.330;2023-05-08T04:28:09;101062.13;;;33.86;15.42
72942;BME280;69665;55.822;37.330;2023-05-08T04:30:38;101073.22;;;33.92;15.46
72942;BME280;69665;55.822;37.330;2023-05-08T04:33:05;101069.28;;;34.50;15.55
72942;BME280;69665;55.822;37.330;2023-05-08T04:35:35;101077.59;;;34.96;13.89
72942;BME280;69665;55.822;37.330;2023-05-08T04:38:01;101061.41;;;35.32;14.69
72942;BME280;69665;55.822;37.330;2023-05-08T04:40:27;101048.38;;;35.86;14.76
72942;BME280;69665;55.822;37.330;2023-05-08T04:42:53;101055.16;;;36.49;14.39
72942;BME280;69665;55.822;37.330;2023-05-08T04:45:20;101064.50;;;37.06;14.37
72942;BME280;69665;55.822;37.330;2023-05-08T04:47:46;101049.22;;;37.46;14.58
72942;BME280;69665;55.822;37.330;2023-05-08T04:50:11;101067.63;;;38.01;13.97
72942;BME280;69665;55.822;37.330;2023-05-08T04:52:37;101063.84;;;38.50;13.58
72942;BME280;69665;55.822;37.330;2023-05-08T04:55:03;101070.59;;;38.88;13.89
72942;BME280;69665;55.822;37.330;2023-05-08T04:57:32;101078.22;;;38.99;13.47
72942;BME280;69665;55.822;37.330;2023-05-08T04:59:58;101069.97;;;38.93;13.66
72942;BME280;69665;55.822;37.330;2023-05-08T05:02:26;101067.50;;;39.51;12.33
72942;BME280;69665;55.822;37.330;2023-05-08T05:04:53;101048.91;;;38.18;14.60
72942;BME280;69665;55.822;37.330;2023-05-08T05:07:18;101072.25;;;38.69;14.02
72942;BME280;69665;55.822;37.330;2023-05-08T05:09:44;101064.91;;;38.08;14.27
72942;BME280;69665;55.822;37.330;2023-05-08T05:12:10;101059.34;;;38.83;14.15
72942;BME280;69665;55.822;37.330;2023-05-08T05:14:35;101071.41;;;38.28;14.06
72942;BME280;69665;55.822;37.330;2023-05-08T05:17:01;101070.66;;;38.54;15.21
72942;BME280;69665;55.822;37.330;2023-05-08T05:19:27;101072.97;;;38.50;14.71
72942;BME280;69665;55.822;37.330;2023-05-08T05:21:53;101076.97;;;38.95;14.10
72942;BME280;69665;55.822;37.330;2023-05-08T05:24:18;101075.97;;;39.82;14.55
72942;BME280;69665;55.822;37.330;2023-05-08T05:26:44;101064.94;;;39.95;14.33
72942;BME280;69665;55.822;37.330;2023-05-08T05:29:10;101082.91;;;40.82;13.58
72942;BME280;69665;55.822;37.330;2023-05-08T05:31:36;101071.59;;;41.22;13.33
72942;BME280;69665;55.822;37.330;2023-05-08T05:34:02;101068.56;;;41.98;14.09
72942;BME280;69665;55.822;37.330;2023-05-08T05:36:27;101082.38;;;42.05;13.97
72942;BME280;69665;55.822;37.330;2023-05-08T05:38:53;101087.84;;;42.29;12.85
72942;BME280;69665;55.822;37.330;2023-05-08T05:41:19;101077.72;;;41.98;13.04
72942;BME280;69665;55.822;37.330;2023-05-08T05:43:45;101085.88;;;41.93;13.22
72942;BME280;69665;55.822;37.330;2023-05-08T05:46:10;101075.66;;;41.19;13.88
72942;BME280;69665;55.822;37.330;2023-05-08T05:48:38;101090.47;;;41.00;13.55
72942;BME280;69665;55.822;37.330;2023-05-08T05:51:04;101080.44;;;39.37;14.54
72942;BME280;69665;55.822;37.330;2023-05-08T05:53:30;101082.38;;;37.87;14.62
72942;BME280;69665;55.822;37.330;2023-05-08T05:55:56;101081.44;;;38.96;12.64
72942;BME280;69665;55.822;37.330;2023-05-08T05:58:23;101076.19;;;39.34;13.76
72942;BME280;69665;55.822;37.330;2023-05-08T06:00:50;101082.44;;;40.85;13.29
72942;BME280;69665;55.822;37.330;2023-05-08T06:03:15;101086.63;;;41.01;13.44
72942;BME280;69665;55.822;37.330;2023-05-08T06:05:41;101083.25;;;41.30;13.23
72942;BME280;69665;55.822;37.330;2023-05-08T06:08:07;101090.91;;;40.97;13.68
72942;BME280;69665;55.822;37.330;2023-05-08T06:10:33;101089.13;;;39.87;13.53
72942;BME280;69665;55.822;37.330;2023-05-08T06:12:58;101095.09;;;39.51;13.59
72942;BME280;69665;55.822;37.330;2023-05-08T06:15:24;101078.50;;;39.77;13.62
72942;BME280;69665;55.822;37.330;2023-05-08T06:17:50;101080.41;;;39.30;13.41
72942;BME280;69665;55.822;37.330;2023-05-08T06:20:17;101077.78;;;38.89;13.80
72942;BME280;69665;55.822;37.330;2023-05-08T06:22:43;101082.75;;;39.27;13.24
72942;BME280;69665;55.822;37.330;2023-05-08T06:25:11;101055.81;;;39.29;13.66
72942;BME280;69665;55.822;37.330;2023-05-08T06:27:37;101082.13;;;39.31;13.31
72942;BME280;69665;55.822;37.330;2023-05-08T06:30:03;101070.41;;;40.09;12.87
72942;BME280;69665;55.822;37.330;2023-05-08T06:32:32;101088.72;;;40.61;12.45
72942;BME280;69665;55.822;37.330;2023-05-08T06:34:57;101076.72;;;41.75;12.35
72942;BME280;69665;55.822;37.330;2023-05-08T06:37:23;101066.84;;;42.04;12.50
72942;BME280;69665;55.822;37.330;2023-05-08T06:39:48;101088.06;;;42.94;12.24
72942;BME280;69665;55.822;37.330;2023-05-08T06:42:14;101090.16;;;42.32;11.52
72942;BME280;69665;55.822;37.330;2023-05-08T06:44:43;101081.81;;;40.83;12.57
72942;BME280;69665;55.822;37.330;2023-05-08T06:47:09;101065.88;;;40.41;13.26
72942;BME280;69665;55.822;37.330;2023-05-08T06:49:35;101077.41;;;41.88;11.90
72942;BME280;69665;55.822;37.330;2023-05-08T06:52:01;101074.06;;;42.89;12.21
72942;BME280;69665;55.822;37.330;2023-05-08T06:54:26;101079.19;;;42.74;12.13
72942;BME280;69665;55.822;37.330;2023-05-08T06:56:52;101070.78;;;41.89;11.59
72942;BME280;69665;55.822;37.330;2023-05-08T06:59:19;101058.78;;;41.52;12.31
72942;BME280;69665;55.822;37.330;2023-05-08T07:01:45;101067.44;;;42.24;11.76
72942;BME280;69665;55.822;37.330;2023-05-08T07:04:11;101064.50;;;40.56;11.97
72942;BME280;69665;55.822;37.330;2023-05-08T07:06:36;101083.19;;;39.44;12.92
72942;BME280;69665;55.822;37.330;2023-05-08T07:09:02;101070.63;;;38.41;13.17
72942;BME280;69665;55.822;37.330;2023-05-08T07:11:27;101070.63;;;38.41;13.15
72942;BME280;69665;55.822;37.330;2023-05-08T07:13:53;101041.94;;;38.76;12.72
72942;BME280;69665;55.822;37.330;2023-05-08T07:16:19;101053.28;;;35.38;12.70
72942;BME280;69665;55.822;37.330;2023-05-08T07:18:44;101063.63;;;34.52;14.15
72942;BME280;69665;55.822;37.330;2023-05-08T07:21:10;101065.16;;;34.54;14.16
72942;BME280;69665;55.822;37.330;2023-05-08T07:23:35;101067.78;;;33.11;14.05
72942;BME280;69665;55.822;37.330;2023-05-08T07:26:01;101043.41;;;31.57;14.79
72942;BME280;69665;55.822;37.330;2023-05-08T07:28:27;101055.19;;;33.51;13.60
72942;BME280;69665;55.822;37.330;2023-05-08T07:30:52;101046.56;;;34.81;13.29
72942;BME280;69665;55.822;37.330;2023-05-08T07:33:18;101069.78;;;35.68;12.08
72942;BME280;69665;55.822;37.330;2023-05-08T07:35:44;101046.53;;;35.64;12.58
72942;BME280;69665;55.822;37.330;2023-05-08T07:38:09;101044.06;;;33.44;13.84
72942;BME280;69665;55.822;37.330;2023-05-08T07:40:35;101045.84;;;35.62;12.89
72942;BME280;69665;55.822;37.330;2023-05-08T07:43:01;101048.25;;;34.51;13.18
72942;BME280;69665;55.822;37.330;2023-05-08T07:45:26;101042.94;;;30.55;14.73
72942;BME280;69665;55.822;37.330;2023-05-08T07:47:54;101046.22;;;26.96;15.35
72942;BME280;69665;55.822;37.330;2023-05-08T07:50:22;101029.13;;;24.45;15.97
72942;BME280;69665;55.822;37.330;2023-05-08T07:52:48;101057.47;;;22.70;16.71
72942;BME280;69665;55.822;37.330;2023-05-08T07:55:14;101046.84;;;21.26;16.79
72942;BME280;69665;55.822;37.330;2023-05-08T07:57:41;101059.50;;;20.47;17.95
72942;BME280;69665;55.822;37.330;2023-05-08T08:00:09;101048.88;;;19.97;17.65
72942;BME280;69665;55.822;37.330;2023-05-08T08:02:42;101044.09;;;19.86;17.68
72942;BME280;69665;55.822;37.330;2023-05-08T08:05:08;101067.56;;;19.29;18.36
72942;BME280;69665;55.822;37.330;2023-05-08T08:07:34;101071.56;;;18.86;18.50
72942;BME280;69665;55.822;37.330;2023-05-08T08:10:01;101038.56;;;18.70;18.20
72942;BME280;69665;55.822;37.330;2023-05-08T08:12:29;101062.19;;;18.59;18.58
72942;BME280;69665;55.822;37.330;2023-05-08T08:14:55;101051.63;;;18.39;18.17
72942;BME280;69665;55.822;37.330;2023-05-08T08:17:21;101052.56;;;19.44;18.26
72942;BME280;69665;55.822;37.330;2023-05-08T08:19:47;101057.63;;;20.01;17.90
72942;BME280;69665;55.822;37.330;2023-05-08T08:22:13;101054.41;;;19.94;17.68
72942;BME280;69665;55.822;37.330;2023-05-08T08:24:38;101059.72;;;19.26;18.02
72942;BME280;69665;55.822;37.330;2023-05-08T08:27:04;101063.03;;;18.78;18.27
72942;BME280;69665;55.822;37.330;2023-05-08T08:29:29;101063.38;;;18.35;18.04
72942;BME280;69665;55.822;37.330;2023-05-08T08:31:55;101058.88;;;17.97;18.57
72942;BME280;69665;55.822;37.330;2023-05-08T08:34:21;101061.84;;;17.71;18.63
72942;BME280;69665;55.822;37.330;2023-05-08T08:36:47;101048.91;;;17.42;19.00
72942;BME280;69665;55.822;37.330;2023-05-08T08:39:12;101059.56;;;17.42;18.71
72942;BME280;69665;55.822;37.330;2023-05-08T08:41:38;101057.88;;;17.41;19.04
72942;BME280;69665;55.822;37.330;2023-05-08T08:44:04;101056.13;;;17.40;19.09
72942;BME280;69665;55.822;37.330;2023-05-08T08:46:30;101058.06;;;17.36;18.78
72942;BME280;69665;55.822;37.330;2023-05-08T08:49:02;101038.94;;;17.06;19.05
72942;BME280;69665;55.822;37.330;2023-05-08T08:51:50;101049.56;;;16.86;18.79
72942;BME280;69665;55.822;37.330;2023-05-08T08:54:20;101062.00;;;16.85;18.96
72942;BME280;69665;55.822;37.330;2023-05-08T08:56:49;101061.28;;;16.58;19.22
72942;BME280;69665;55.822;37.330;2023-05-08T08:59:17;101067.91;;;16.25;19.04
72942;BME280;69665;55.822;37.330;2023-05-08T09:01:46;101059.84;;;16.05;18.87
72942;BME280;69665;55.822;37.330;2023-05-08T09:04:12;101062.44;;;16.06;18.73
72942;BME280;69665;55.822;37.330;2023-05-08T09:06:38;101065.31;;;16.23;19.38
72942;BME280;69665;55.822;37.330;2023-05-08T09:09:05;101050.63;;;16.37;19.04
72942;BME280;69665;55.822;37.330;2023-05-08T09:11:31;101059.19;;;16.21;18.91
72942;BME280;69665;55.822;37.330;2023-05-08T09:13:57;101053.47;;;16.32;18.85
72942;BME280;69665;55.822;37.330;2023-05-08T09:16:26;101063.81;;;16.61;18.34
72942;BME280;69665;55.822;37.330;2023-05-08T09:18:52;101057.97;;;16.75;18.64
72942;BME280;69665;55.822;37.330;2023-05-08T09:21:19;101055.97;;;16.58;18.61
72942;BME280;69665;55.822;37.330;2023-05-08T09:23:57;101046.13;;;16.60;18.67
72942;BME280;69665;55.822;37.330;2023-05-08T09:26:31;101049.25;;;16.72;18.69
72942;BME280;69665;55.822;37.330;2023-05-08T09:29:16;101053.25;;;16.60;18.24
72942;BME280;69665;55.822;37.330;2023-05-08T09:31:46;101043.34;;;16.63;19.04
72942;BME280;69665;55.822;37.330;2023-05-08T09:36:49;101041.38;;;16.69;18.68
72942;BME280;69665;55.822;37.330;2023-05-08T09:39:21;101059.34;;;16.85;18.62
72942;BME280;69665;55.822;37.330;2023-05-08T09:42:02;101053.81;;;16.68;18.80
72942;BME280;69665;55.822;37.330;2023-05-08T09:44:42;101043.28;;;16.65;18.84
72942;BME280;69665;55.822;37.330;2023-05-08T09:47:23;101050.53;;;16.61;18.84
72942;BME280;69665;55.822;37.330;2023-05-08T09:49:59;101056.88;;;16.57;18.66
72942;BME280;69665;55.822;37.330;2023-05-08T09:52:26;101045.38;;;16.35;18.84
72942;BME280;69665;55.822;37.330;2023-05-08T09:54:56;101046.09;;;16.39;18.78
72942;BME280;69665;55.822;37.330;2023-05-08T09:57:23;101035.00;;;16.51;18.97
72942;BME280;69665;55.822;37.330;2023-05-08T09:59:49;101037.59;;;16.52;18.61
72942;BME280;69665;55.822;37.330;2023-05-08T10:02:15;101037.75;;;16.48;18.99
72942;BME280;69665;55.822;37.330;2023-05-08T10:04:41;101014.88;;;16.44;18.55
72942;BME280;69665;55.822;37.330;2023-05-08T10:07:07;101038.97;;;16.84;19.02
72942;BME280;69665;55.822;37.330;2023-05-08T10:09:33;101025.38;;;17.33;18.18
72942;BME280;69665;55.822;37.330;2023-05-08T10:11:58;101029.88;;;17.71;18.29
72942;BME280;69665;55.822;37.330;2023-05-08T10:14:24;101034.75;;;18.01;18.47
72942;BME280;69665;55.822;37.330;2023-05-08T10:16:51;101034.38;;;18.27;18.04
72942;BME280;69665;55.822;37.330;2023-05-08T10:19:24;101008.97;;;18.56;17.67
72942;BME280;69665;55.822;37.330;2023-05-08T10:21:54;101036.41;;;19.13;17.56
72942;BME280;69665;55.822;37.330;2023-05-08T10:24:26;101015.25;;;19.43;17.83
72942;BME280;69665;55.822;37.330;2023-05-08T10:29:33;101024.28;;;19.90;16.83
72942;BME280;69665;55.822;37.330;2023-05-08T10:32:08;101026.81;;;19.76;17.04
72942;BME280;69665;55.822;37.330;2023-05-08T10:34:39;101014.06;;;19.81;17.18
72942;BME280;69665;55.822;37.330;2023-05-08T10:37:08;101014.75;;;19.69;17.35
72942;BME280;69665;55.822;37.330;2023-05-08T10:39:34;101008.31;;;19.56;17.28
72942;BME280;69665;55.822;37.330;2023-05-08T10:42:01;101011.72;;;19.42;17.69
72942;BME280;69665;55.822;37.330;2023-05-08T10:44:27;101008.75;;;18.96;16.94
72942;BME280;69665;55.822;37.330;2023-05-08T10:47:00;100990.22;;;18.57;17.34
72942;BME280;69665;55.822;37.330;2023-05-08T10:49:46;101007.06;;;18.41;17.68
72942;BME280;69665;55.822;37.330;2023-05-08T10:52:28;100997.94;;;18.09;17.89
72942;BME280;69665;55.822;37.330;2023-05-08T10:57:23;100982.38;;;17.81;18.47
72942;BME280;69665;55.822;37.330;2023-05-08T10:59:49;100988.13;;;17.51;18.42
72942;BME280;69665;55.822;37.330;2023-05-08T11:02:15;100986.91;;;17.58;18.13
72942;BME280;69665;55.822;37.330;2023-05-08T11:04:41;100985.13;;;17.59;18.53
72942;BME280;69665;55.822;37.330;2023-05-08T11:07:08;100989.72;;;17.55;18.17
72942;BME280;69665;55.822;37.330;2023-05-08T11:12:19;100985.91;;;17.61;17.77
72942;BME280;69665;55.822;37.330;2023-05-08T11:14:54;100974.94;;;17.48;17.75
72942;BME280;69665;55.822;37.330;2023-05-08T11:17:23;100971.91;;;17.37;17.56
72942;BME280;69665;55.822;37.330;2023-05-08T11:19:55;100985.44;;;17.33;18.29
72942;BME280;69665;55.822;37.330;2023-05-08T11:22:34;100990.72;;;16.92;18.40
72942;BME280;69665;55.822;37.330;2023-05-08T11:25:03;100995.22;;;16.26;18.80
72942;BME280;69665;55.822;37.330;2023-05-08T11:30:39;100996.31;;;15.50;19.24
72942;BME280;69665;55.822;37.330;2023-05-08T11:35:55;101011.44;;;14.99;19.16
72942;BME280;69665;55.822;37.330;2023-05-08T11:46:07;101003.53;;;14.71;19.50
72942;BME280;69665;55.822;37.330;2023-05-08T11:48:38;101012.59;;;14.64;20.06
72942;BME280;69665;55.822;37.330;2023-05-08T11:51:04;100995.19;;;14.81;19.58
72942;BME280;69665;55.822;37.330;2023-05-08T11:53:29;100998.13;;;15.00;19.54
72942;BME280;69665;55.822;37.330;2023-05-08T11:55:56;101006.09;;;15.25;19.64
72942;BME280;69665;55.822;37.330;2023-05-08T11:58:22;100994.34;;;15.32;19.41
72942;BME280;69665;55.822;37.330;2023-05-08T12:00:48;100995.06;;;15.36;19.30
72942;BME280;69665;55.822;37.330;2023-05-08T12:03:18;100997.78;;;15.34;19.33
72942;BME280;69665;55.822;37.330;2023-05-08T12:05:45;100994.72;;;15.21;19.48
72942;BME280;69665;55.822;37.330;2023-05-08T12:08:12;101003.50;;;15.23;19.33
72942;BME280;69665;55.822;37.330;2023-05-08T12:13:28;100991.44;;;15.13;19.39
72942;BME280;69665;55.822;37.330;2023-05-08T12:15:55;100992.94;;;15.22;19.50
72942;BME280;69665;55.822;37.330;2023-05-08T12:18:22;100977.25;;;15.14;19.16
72942;BME280;69665;55.822;37.330;2023-05-08T12:20:52;100996.53;;;15.44;18.92
72942;BME280;69665;55.822;37.330;2023-05-08T12:23:18;100987.19;;;15.59;18.95
72942;BME280;69665;55.822;37.330;2023-05-08T12:25:45;100978.44;;;15.55;19.37
72942;BME280;69665;55.822;37.330;2023-05-08T12:28:10;100986.44;;;15.79;19.04
72942;BME280;69665;55.822;37.330;2023-05-08T12:30:36;100986.00;;;15.89;19.49
72942;BME280;69665;55.822;37.330;2023-05-08T12:33:05;100983.19;;;15.94;18.86
72942;BME280;69665;55.822;37.330;2023-05-08T12:35:31;100981.84;;;16.06;18.95
72942;BME280;69665;55.822;37.330;2023-05-08T12:38:01;100979.50;;;16.20;19.06
72942;BME280;69665;55.822;37.330;2023-05-08T12:40:30;100978.03;;;16.35;18.97
72942;BME280;69665;55.822;37.330;2023-05-08T12:43:05;100975.78;;;16.46;19.00
72942;BME280;69665;55.822;37.330;2023-05-08T12:45:34;100973.28;;;16.65;18.99
72942;BME280;69665;55.822;37.330;2023-05-08T12:48:03;100969.13;;;16.79;18.82
72942;BME280;69665;55.822;37.330;2023-05-08T12:50:54;100963.59;;;16.84;18.99
72942;BME280;69665;55.822;37.330;2023-05-08T12:53:30;100968.50;;;16.93;18.78
72942;BME280;69665;55.822;37.330;2023-05-08T12:56:00;100957.53;;;16.80;18.79
72942;BME280;69665;55.822;37.330;2023-05-08T12:58:32;100965.78;;;16.74;18.73
72942;BME280;69665;55.822;37.330;2023-05-08T13:01:08;100967.38;;;16.56;18.80
72942;BME280;69665;55.822;37.330;2023-05-08T13:03:36;100954.34;;;16.28;19.04
72942;BME280;69665;55.822;37.330;2023-05-08T13:06:02;100960.59;;;16.06;19.33
72942;BME280;69665;55.822;37.330;2023-05-08T13:08:36;100959.97;;;15.99;18.98
72942;BME280;69665;55.822;37.330;2023-05-08T13:11:04;100958.63;;;15.87;19.17
72942;BME280;69665;55.822;37.330;2023-05-08T13:13:35;100964.75;;;15.89;19.31
72942;BME280;69665;55.822;37.330;2023-05-08T13:16:02;100938.56;;;15.80;19.06
72942;BME280;69665;55.822;37.330;2023-05-08T13:18:28;100947.66;;;15.97;19.28
72942;BME280;69665;55.822;37.330;2023-05-08T13:20:55;100951.47;;;15.89;19.17
72942;BME280;69665;55.822;37.330;2023-05-08T13:23:21;100931.75;;;15.73;19.10
72942;BME280;69665;55.822;37.330;2023-05-08T13:25:48;100952.41;;;15.88;19.71
72942;BME280;69665;55.822;37.330;2023-05-08T13:28:14;100937.34;;;15.66;19.99
72942;BME280;69665;55.822;37.330;2023-05-08T13:30:40;100953.59;;;15.58;19.67
72942;BME280;69665;55.822;37.330;2023-05-08T13:33:12;100948.69;;;15.46;19.57
72942;BME280;69665;55.822;37.330;2023-05-08T13:36:20;100952.88;;;15.53;19.68
72942;BME280;69665;55.822;37.330;2023-05-08T13:38:50;100942.34;;;15.26;20.33
72942;BME280;69665;55.822;37.330;2023-05-08T13:41:18;100949.59;;;15.21;19.49
72942;BME280;69665;55.822;37.330;2023-05-08T13:43:44;100954.16;;;15.18;19.70